createdAt,value
2022-12-17T00:02:44.832Z,64.70
2022-12-17T00:05:32.749Z,69.60
2022-12-17T00:08:31.581Z,73.00
2022-12-17T00:11:18.411Z,73.70
2022-12-17T00:14:04.851Z,66.90
2022-12-17T00:16:51.595Z,69.60
2022-12-17T00:19:39.293Z,68.80
2022-12-17T00:22:25.970Z,68.10
2022-12-17T00:25:12.697Z,68.40
2022-12-17T00:27:59.491Z,67.00
2022-12-17T00:30:46.177Z,63.60
2022-12-17T00:33:34.641Z,61.10
2022-12-17T00:36:23.187Z,64.20
2022-12-17T00:39:09.855Z,62.00
2022-12-17T00:41:58.137Z,64.60
2022-12-17T00:44:44.756Z,61.60
2022-12-17T00:47:32.865Z,60.50
2022-12-17T00:50:19.434Z,59.50
2022-12-17T00:53:08.021Z,62.70
2022-12-17T00:55:54.920Z,59.30
2022-12-17T00:58:45.253Z,57.80
2022-12-17T01:01:32.177Z,53.00
2022-12-17T01:04:19.998Z,55.60
2022-12-17T01:07:08.128Z,55.80
2022-12-17T01:09:54.737Z,57.10
2022-12-17T01:12:42.357Z,56.00
2022-12-17T01:15:29.176Z,56.80
2022-12-17T01:18:16.029Z,62.00
2022-12-17T01:21:02.483Z,62.80
2022-12-17T01:23:48.987Z,66.30
2022-12-17T01:26:35.953Z,60.70
2022-12-17T01:29:22.703Z,65.50
2022-12-17T01:32:09.557Z,70.80
2022-12-17T01:34:57.734Z,68.00
2022-12-17T01:37:44.375Z,69.50
2022-12-17T01:40:30.976Z,71.40
2022-12-17T01:43:17.659Z,69.70
2022-12-17T01:46:08.305Z,77.00
2022-12-17T01:49:04.977Z,72.00
2022-12-17T01:51:54.337Z,68.80
2022-12-17T01:54:44.866Z,75.70
2022-12-17T01:57:35.243Z,70.40
2022-12-17T02:00:28.078Z,70.60
2022-12-17T02:03:17.369Z,68.90
2022-12-17T02:06:16.957Z,70.10
2022-12-17T02:09:15.850Z,78.60
2022-12-17T02:12:16.538Z,75.10
2022-12-17T02:15:24.389Z,71.30
2022-12-17T02:18:23.087Z,77.70
2022-12-17T02:21:13.483Z,73.10
2022-12-17T02:24:34.149Z,73.10
2022-12-17T02:27:26.965Z,71.60
2022-12-17T02:30:24.262Z,73.10
2022-12-17T02:33:13.528Z,77.10
2022-12-17T02:36:05.366Z,72.40
2022-12-17T02:38:53.662Z,77.40
2022-12-17T02:41:54.242Z,73.50
2022-12-17T02:44:43.123Z,71.30
2022-12-17T02:47:52.193Z,74.40
2022-12-17T02:50:40.046Z,70.90
2022-12-17T02:53:29.297Z,76.50
2022-12-17T02:56:15.688Z,73.20
2022-12-17T02:59:02.006Z,71.90
2022-12-17T03:01:48.650Z,77.40
2022-12-17T03:04:35.923Z,66.90
2022-12-17T03:07:22.416Z,76.70
2022-12-17T03:10:08.938Z,67.40
2022-12-17T03:12:55.421Z,67.60
2022-12-17T03:15:41.703Z,72.60
2022-12-17T03:18:28.008Z,76.50
2022-12-17T03:21:16.294Z,72.80
2022-12-17T03:24:02.946Z,71.60
2022-12-17T03:26:50.647Z,74.50
2022-12-17T03:29:37.156Z,68.80
2022-12-17T03:32:24.139Z,88.80
2022-12-17T03:35:10.846Z,80.80
2022-12-17T03:37:57.418Z,70.30
2022-12-17T03:40:43.809Z,69.80
2022-12-17T03:43:32.787Z,73.10
2022-12-17T03:46:20.266Z,73.30
2022-12-17T03:49:07.498Z,67.60
2022-12-17T03:51:54.228Z,71.60
2022-12-17T03:54:40.636Z,64.70
2022-12-17T03:57:28.864Z,78.10
2022-12-17T04:00:15.641Z,70.80
2022-12-17T04:03:02.405Z,67.90
2022-12-17T04:05:50.441Z,73.60
2022-12-17T04:08:37.008Z,69.80
2022-12-17T04:11:25.802Z,68.30
2022-12-17T04:14:12.613Z,63.80
2022-12-17T04:16:59.521Z,68.60
2022-12-17T04:19:46.336Z,64.70
2022-12-17T04:22:32.558Z,63.50
2022-12-17T04:25:19.119Z,71.30
2022-12-17T04:28:05.922Z,61.10
2022-12-17T04:30:52.249Z,61.80
2022-12-17T04:33:40.380Z,66.70
2022-12-17T04:36:28.645Z,68.60
2022-12-17T04:39:15.489Z,69.50
2022-12-17T04:42:01.826Z,67.00
2022-12-17T04:44:48.167Z,73.70
2022-12-17T04:47:34.780Z,70.60
2022-12-17T04:50:21.411Z,70.30
2022-12-17T04:53:08.350Z,66.50
2022-12-17T04:55:54.898Z,71.50
2022-12-17T04:58:41.462Z,67.50
2022-12-17T05:01:29.526Z,69.10
2022-12-17T05:04:17.118Z,69.30
2022-12-17T05:07:04.812Z,64.20
2022-12-17T05:09:51.644Z,69.80
2022-12-17T05:12:38.313Z,69.50
2022-12-17T05:15:26.834Z,64.50
2022-12-17T05:18:13.658Z,69.70
2022-12-17T05:21:01.802Z,69.30
2022-12-17T05:23:48.250Z,66.30
2022-12-17T05:26:44.931Z,69.90
2022-12-17T05:29:33.852Z,61.80
2022-12-17T05:32:20.672Z,66.40
2022-12-17T05:35:07.224Z,64.60
2022-12-17T05:37:53.838Z,67.20
2022-12-17T05:40:41.842Z,73.80
2022-12-17T05:43:31.929Z,66.70
2022-12-17T05:46:21.059Z,63.30
2022-12-17T05:49:09.074Z,62.50
2022-12-17T05:51:55.599Z,59.30
2022-12-17T05:54:42.093Z,59.30
2022-12-17T05:57:28.595Z,62.80
2022-12-17T06:00:15.251Z,63.70
2022-12-17T06:03:02.125Z,66.90
2022-12-17T06:05:49.741Z,71.00
2022-12-17T06:08:36.684Z,74.00
2022-12-17T06:11:23.205Z,72.40
2022-12-17T06:14:09.679Z,69.70
2022-12-17T06:16:58.235Z,69.10
2022-12-17T06:19:45.112Z,68.90
2022-12-17T06:22:32.017Z,73.00
2022-12-17T06:25:18.761Z,67.20
2022-12-17T06:28:05.197Z,79.70
2022-12-17T06:30:52.346Z,70.40
2022-12-17T06:33:38.947Z,71.10
2022-12-17T06:36:27.643Z,76.70
2022-12-17T06:39:14.308Z,69.40
2022-12-17T06:42:04.583Z,73.10
2022-12-17T06:44:52.983Z,77.00
2022-12-17T06:47:39.936Z,75.60
2022-12-17T06:50:28.313Z,77.00
2022-12-17T06:53:20.871Z,77.90
2022-12-17T06:56:10.859Z,77.70
2022-12-17T06:58:57.487Z,74.00
2022-12-17T07:01:44.786Z,70.30
2022-12-17T07:04:32.746Z,70.70
2022-12-17T07:07:19.355Z,78.20
2022-12-17T07:10:09.326Z,75.30
2022-12-17T07:13:01.569Z,89.70
2022-12-17T07:15:47.912Z,79.30
2022-12-17T07:18:35.859Z,85.60
2022-12-17T07:21:22.477Z,74.90
2022-12-17T07:24:09.362Z,82.10
2022-12-17T07:26:56.000Z,78.90
2022-12-17T07:29:44.214Z,68.90
2022-12-17T07:32:31.046Z,67.30
2022-12-17T07:35:17.714Z,73.20
2022-12-17T07:38:05.743Z,75.80
2022-12-17T07:40:53.147Z,76.60
2022-12-17T07:43:40.133Z,77.20
2022-12-17T07:46:27.951Z,82.70
2022-12-17T07:49:14.494Z,82.20
2022-12-17T07:52:00.883Z,74.00
2022-12-17T07:54:47.294Z,67.10
2022-12-17T07:57:34.331Z,68.60
2022-12-17T08:00:23.682Z,69.70
2022-12-17T08:03:16.983Z,68.50
2022-12-17T08:06:07.445Z,72.50
2022-12-17T08:08:54.119Z,71.40
2022-12-17T08:11:40.700Z,63.50
2022-12-17T08:14:27.459Z,66.10
2022-12-17T08:17:14.314Z,67.30
2022-12-17T08:20:01.522Z,70.80
2022-12-17T08:22:48.322Z,67.70
2022-12-17T08:25:35.214Z,66.50
2022-12-17T08:28:48.942Z,64.40
2022-12-17T08:31:27.870Z,63.40
2022-12-17T08:34:14.246Z,65.00
2022-12-17T08:37:00.872Z,65.30
2022-12-17T08:39:47.563Z,62.30
2022-12-17T08:42:34.461Z,63.80
2022-12-17T08:45:21.412Z,60.10
2022-12-17T08:48:08.303Z,63.70
2022-12-17T08:50:55.179Z,61.10
2022-12-17T08:53:43.141Z,63.80
2022-12-17T08:56:31.362Z,61.80
2022-12-17T08:59:17.686Z,63.50
2022-12-17T09:02:04.560Z,64.60
2022-12-17T09:04:53.638Z,70.10
2022-12-17T09:07:39.995Z,66.60
2022-12-17T09:10:27.725Z,69.20
2022-12-17T09:13:16.501Z,68.90
2022-12-17T09:16:02.908Z,64.20
2022-12-17T09:18:49.556Z,66.40
2022-12-17T09:21:36.082Z,60.20
2022-12-17T09:24:24.854Z,66.70
2022-12-17T09:27:13.969Z,66.80
2022-12-17T09:30:00.602Z,56.60
2022-12-17T09:32:51.266Z,70.50
2022-12-17T09:35:37.949Z,59.60
2022-12-17T09:38:24.514Z,63.00
2022-12-17T09:41:11.623Z,61.00
2022-12-17T09:44:01.501Z,62.00
2022-12-17T09:47:20.382Z,57.90
2022-12-17T09:50:07.862Z,62.70
2022-12-17T09:53:00.911Z,61.60
2022-12-17T09:55:59.217Z,67.20
2022-12-17T09:59:00.152Z,65.00
2022-12-17T10:01:53.146Z,64.40
2022-12-17T10:04:53.097Z,68.40
2022-12-17T10:07:45.979Z,67.30
2022-12-17T10:10:41.096Z,62.80
2022-12-17T10:13:39.654Z,60.60
2022-12-17T10:16:55.200Z,60.20
2022-12-17T10:19:55.051Z,65.80
2022-12-17T10:23:05.474Z,64.10
2022-12-17T10:25:55.096Z,62.70
2022-12-17T10:28:44.620Z,68.20
2022-12-17T10:31:45.851Z,60.90
2022-12-17T10:34:38.881Z,67.90
2022-12-17T10:37:39.605Z,67.30
2022-12-17T10:40:52.696Z,63.70
2022-12-17T10:43:58.333Z,60.30
2022-12-17T10:46:51.287Z,66.50
2022-12-17T10:49:43.277Z,63.30
2022-12-17T10:52:51.589Z,65.20
2022-12-17T10:55:50.205Z,62.00
2022-12-17T10:58:49.335Z,63.80
2022-12-17T11:01:45.611Z,64.50
2022-12-17T11:04:43.395Z,67.40
2022-12-17T11:07:39.982Z,64.90
2022-12-17T11:10:38.939Z,64.30
2022-12-17T11:13:51.475Z,69.50
2022-12-17T11:16:51.186Z,66.30
2022-12-17T11:20:18.275Z,73.50
2022-12-17T11:23:11.374Z,70.90
2022-12-17T11:29:00.577Z,69.30
2022-12-17T11:31:57.227Z,64.60
2022-12-17T11:34:43.735Z,68.40
2022-12-17T11:37:48.077Z,70.90
2022-12-17T11:40:57.796Z,69.00
2022-12-17T11:44:00.102Z,71.60
2022-12-17T11:47:04.142Z,68.20
2022-12-17T11:50:11.909Z,72.30
2022-12-17T11:53:07.800Z,67.90
2022-12-17T11:56:24.284Z,302.40
2022-12-17T11:59:17.415Z,86.80
2022-12-17T12:02:29.011Z,78.20
2022-12-17T12:06:10.534Z,75.40
2022-12-17T12:09:07.324Z,78.00
2022-12-17T12:12:26.035Z,81.30
2022-12-17T12:15:25.234Z,79.70
2022-12-17T12:18:28.288Z,79.70
2022-12-17T12:21:42.992Z,73.30
2022-12-17T12:27:43.184Z,73.90
2022-12-17T12:30:40.740Z,162.30
2022-12-17T12:34:04.943Z,92.00
2022-12-17T12:36:54.035Z,81.90
2022-12-17T12:39:56.818Z,75.40
2022-12-17T12:43:04.632Z,73.20
2022-12-17T12:46:10.130Z,72.70
2022-12-17T12:49:19.110Z,71.50
2022-12-17T12:52:09.944Z,69.40
2022-12-17T12:55:07.092Z,74.90
2022-12-17T12:58:00.624Z,69.40
2022-12-17T13:00:49.082Z,66.60
2022-12-17T13:03:45.057Z,67.70
2022-12-17T13:06:35.124Z,66.00
2022-12-17T13:09:34.151Z,64.80
2022-12-17T13:12:02.930Z,65.00
2022-12-17T13:14:46.451Z,64.70
2022-12-17T13:17:14.456Z,58.80
2022-12-17T13:19:58.969Z,65.20
2022-12-17T13:22:33.682Z,69.80
2022-12-17T13:25:20.646Z,62.70
2022-12-17T13:27:49.625Z,63.30
2022-12-17T13:30:24.242Z,59.80
2022-12-17T13:33:19.528Z,59.50
2022-12-17T13:35:59.356Z,59.40
2022-12-17T13:38:33.870Z,64.10
2022-12-17T13:41:11.471Z,59.90
2022-12-17T13:43:47.197Z,69.50
2022-12-17T13:46:27.047Z,69.10
2022-12-17T13:49:01.209Z,68.00
2022-12-17T13:51:32.253Z,65.80
2022-12-17T13:54:02.730Z,62.00
2022-12-17T13:56:34.061Z,68.90
2022-12-17T13:59:09.295Z,64.60
2022-12-17T14:01:46.661Z,65.10
2022-12-17T14:04:25.265Z,64.50
2022-12-17T14:06:56.820Z,65.30
2022-12-17T14:09:40.668Z,70.50
2022-12-17T14:12:22.315Z,69.60
2022-12-17T14:14:58.315Z,67.10
2022-12-17T14:17:30.989Z,64.50
2022-12-17T14:20:05.583Z,67.40
2022-12-17T14:22:39.032Z,68.70
2022-12-17T14:25:32.338Z,61.60
2022-12-17T14:28:05.255Z,75.10
2022-12-17T14:30:33.059Z,66.90
2022-12-17T14:33:01.097Z,78.20
2022-12-17T14:35:39.256Z,78.40
2022-12-17T14:38:36.909Z,69.60
2022-12-17T14:41:32.240Z,69.70
2022-12-17T14:44:03.110Z,69.60
2022-12-17T14:46:33.800Z,72.90
2022-12-17T14:49:05.962Z,71.10
2022-12-17T14:51:39.095Z,78.40
2022-12-17T14:54:33.288Z,77.80
2022-12-17T14:57:20.301Z,83.60
2022-12-17T14:59:50.757Z,83.00
2022-12-17T15:02:29.937Z,81.00
2022-12-17T15:05:03.044Z,69.80
2022-12-17T15:07:33.251Z,70.80
2022-12-17T15:10:01.130Z,75.40
2022-12-17T15:12:32.105Z,68.10
2022-12-17T15:14:59.996Z,66.90
2022-12-17T15:17:27.838Z,60.00
2022-12-17T15:19:56.390Z,69.30
2022-12-17T15:22:25.683Z,71.40
2022-12-17T15:24:53.522Z,73.40
2022-12-17T15:27:21.337Z,65.60
2022-12-17T15:29:51.002Z,67.10
2022-12-17T15:32:22.599Z,71.10
2022-12-17T15:34:50.746Z,76.40
2022-12-17T15:37:25.518Z,66.90
2022-12-17T15:39:57.813Z,70.80
2022-12-17T15:42:46.923Z,77.20
2022-12-17T15:45:14.837Z,67.80
2022-12-17T15:47:42.682Z,72.30
2022-12-17T15:50:10.781Z,67.70
2022-12-17T15:52:38.658Z,77.40
2022-12-17T15:55:07.334Z,73.60
2022-12-17T15:57:36.728Z,79.00
2022-12-17T16:00:05.204Z,76.80
2022-12-17T16:02:33.353Z,81.30
2022-12-17T16:05:01.772Z,74.10
2022-12-17T16:07:29.698Z,72.50
2022-12-17T16:10:04.527Z,81.20
2022-12-17T16:12:33.326Z,78.60
2022-12-17T16:15:01.812Z,74.20
2022-12-17T16:17:29.793Z,71.80
2022-12-17T16:19:58.128Z,80.90
2022-12-17T16:22:26.179Z,73.60
2022-12-17T16:24:54.257Z,75.30
2022-12-17T16:27:22.196Z,71.10
2022-12-17T16:29:50.518Z,76.70
2022-12-17T16:32:18.461Z,75.70
2022-12-17T16:34:47.047Z,70.80
2022-12-17T16:37:15.109Z,72.90
2022-12-17T16:39:43.799Z,73.70
2022-12-17T16:42:12.031Z,78.00
2022-12-17T16:44:39.934Z,84.90
2022-12-17T16:47:07.882Z,97.90
2022-12-17T16:49:35.766Z,99.40
2022-12-17T16:52:03.728Z,95.40
2022-12-17T16:54:32.838Z,98.50
2022-12-17T16:57:02.270Z,95.60
2022-12-17T16:59:31.026Z,95.80
2022-12-17T17:02:00.523Z,93.60
2022-12-17T17:04:28.719Z,93.70
2022-12-17T17:06:57.581Z,97.70
2022-12-17T17:09:25.987Z,107.00
2022-12-17T17:11:59.286Z,92.30
2022-12-17T17:14:28.002Z,95.60
2022-12-17T17:16:56.369Z,98.10
2022-12-17T17:19:24.207Z,97.70
2022-12-17T17:21:54.265Z,95.60
2022-12-17T17:24:25.847Z,94.60
2022-12-17T17:26:55.203Z,98.70
2022-12-17T17:29:23.191Z,104.20
2022-12-17T17:34:39.815Z,105.10
2022-12-17T17:37:08.253Z,99.90
2022-12-17T17:39:36.441Z,93.30
2022-12-17T17:42:05.262Z,89.40
2022-12-17T17:44:33.522Z,88.20
2022-12-17T17:47:01.665Z,88.30
2022-12-17T17:49:29.628Z,87.20
2022-12-17T17:52:13.323Z,89.40
2022-12-17T17:54:42.681Z,91.80
2022-12-17T17:57:11.876Z,93.90
2022-12-17T17:59:39.885Z,92.10
2022-12-17T18:02:10.855Z,97.40
2022-12-17T18:04:40.261Z,94.50
2022-12-17T18:07:24.887Z,88.00
2022-12-17T18:09:54.129Z,100.40
2022-12-17T18:12:41.732Z,88.40
2022-12-17T18:15:15.285Z,91.80
2022-12-17T18:17:46.819Z,99.80
2022-12-17T18:20:16.098Z,101.70
2022-12-17T18:22:46.491Z,87.90
2022-12-17T18:25:17.863Z,97.50
2022-12-17T18:27:48.348Z,103.10
2022-12-17T18:30:16.478Z,109.80
2022-12-17T18:32:50.384Z,100.80
2022-12-17T18:35:19.011Z,74.20
2022-12-17T18:37:46.918Z,88.90
2022-12-17T18:40:14.883Z,93.70
2022-12-17T18:43:01.725Z,103.60
2022-12-17T18:45:30.951Z,106.80
2022-12-17T18:47:58.880Z,94.80
2022-12-17T18:50:26.982Z,93.70
2022-12-17T18:52:54.837Z,110.10
2022-12-17T18:55:22.679Z,98.80
2022-12-17T18:57:50.501Z,92.70
2022-12-17T19:00:18.627Z,97.30
2022-12-17T19:02:46.885Z,100.70
2022-12-17T19:05:15.780Z,97.70
2022-12-17T19:07:43.802Z,112.50
2022-12-17T19:10:11.775Z,101.90
2022-12-17T19:12:39.689Z,103.70
2022-12-17T19:15:09.005Z,96.30
2022-12-17T19:17:36.922Z,97.70
2022-12-17T19:20:05.741Z,107.70
2022-12-17T19:22:33.696Z,110.30
2022-12-17T19:25:01.552Z,103.90
2022-12-17T19:27:29.377Z,99.60
2022-12-17T19:29:57.305Z,95.60
2022-12-17T19:32:26.014Z,117.10
2022-12-17T19:34:53.853Z,105.00
2022-12-17T19:37:21.879Z,98.10
2022-12-17T19:39:50.033Z,110.20
2022-12-17T19:42:33.459Z,103.60
2022-12-17T19:45:05.517Z,112.20
2022-12-17T19:47:33.459Z,108.60
2022-12-17T19:50:01.320Z,101.30
2022-12-17T19:52:29.184Z,107.30
2022-12-17T19:54:58.201Z,103.00
2022-12-17T19:57:26.023Z,106.60
2022-12-17T19:59:53.882Z,105.50
2022-12-17T20:02:21.861Z,103.50
2022-12-17T20:04:51.319Z,104.60
2022-12-17T20:07:19.191Z,102.80
2022-12-17T20:09:47.059Z,100.40
2022-12-17T20:12:14.958Z,109.60
2022-12-17T20:14:42.806Z,106.70
2022-12-17T20:17:10.739Z,115.70
2022-12-17T20:19:38.813Z,103.90
2022-12-17T20:22:07.004Z,105.60
2022-12-17T20:24:35.161Z,106.60
2022-12-17T20:27:04.291Z,115.30
2022-12-17T20:29:32.122Z,112.90
2022-12-17T20:32:00.379Z,111.70
2022-12-17T20:34:28.370Z,115.10
2022-12-17T20:36:56.245Z,113.50
2022-12-17T20:39:27.417Z,99.60
2022-12-17T20:41:57.264Z,107.40
2022-12-17T20:44:25.407Z,109.10
2022-12-17T20:46:53.416Z,106.50
2022-12-17T20:49:21.864Z,87.40
2022-12-17T20:51:50.292Z,119.50
2022-12-17T20:54:18.207Z,108.50
2022-12-17T20:56:46.582Z,106.00
2022-12-17T20:59:18.047Z,115.30
2022-12-17T21:01:50.382Z,107.30
2022-12-17T21:04:22.945Z,104.20
2022-12-17T21:06:51.736Z,99.50
2022-12-17T21:09:22.645Z,110.10
2022-12-17T21:11:51.301Z,100.80
2022-12-17T21:14:19.679Z,114.00
2022-12-17T21:16:48.257Z,109.90
2022-12-17T21:19:19.149Z,105.90
2022-12-17T21:21:47.413Z,102.40
2022-12-17T21:24:15.952Z,107.40
2022-12-17T21:26:46.118Z,105.10
2022-12-17T21:29:14.902Z,99.00
2022-12-17T21:31:48.264Z,101.20
2022-12-17T21:34:21.926Z,109.50
2022-12-17T21:36:51.092Z,108.70
2022-12-17T21:39:20.008Z,108.60
2022-12-17T21:42:07.793Z,112.70
2022-12-17T21:44:37.108Z,103.60
2022-12-17T21:47:05.562Z,113.20
2022-12-17T21:49:34.076Z,105.90
2022-12-17T21:52:03.143Z,106.20
2022-12-17T21:54:31.416Z,109.00
2022-12-17T21:56:59.230Z,116.60
2022-12-17T21:59:27.353Z,101.60
2022-12-17T22:01:57.670Z,110.20
2022-12-17T22:04:26.891Z,109.00
2022-12-17T22:07:01.599Z,98.10
2022-12-17T22:09:56.969Z,100.50
2022-12-17T22:12:43.780Z,101.50
2022-12-17T22:15:13.005Z,99.70
2022-12-17T22:17:42.726Z,94.30
2022-12-17T22:20:11.980Z,91.90
2022-12-17T22:22:39.931Z,92.90
2022-12-17T22:25:11.368Z,90.80
2022-12-17T22:27:41.405Z,100.40
2022-12-17T22:30:33.799Z,79.70
2022-12-17T22:33:12.353Z,89.60
2022-12-17T22:37:57.159Z,91.70
2022-12-17T22:42:18.738Z,85.00
2022-12-17T22:44:45.479Z,92.80
2022-12-17T22:44:51.495Z,93.60
2022-12-17T22:47:22.650Z,91.00
2022-12-17T22:49:50.718Z,83.40
2022-12-17T22:52:20.199Z,78.60
2022-12-17T22:54:49.380Z,90.50
2022-12-17T22:57:35.813Z,86.60
2022-12-17T23:00:23.257Z,83.90
2022-12-17T23:02:54.222Z,85.00
2022-12-17T23:05:24.030Z,87.30
2022-12-17T23:07:52.964Z,85.30
2022-12-17T23:10:22.220Z,86.90
2022-12-17T23:12:56.459Z,80.80
2022-12-17T23:15:28.572Z,89.30
2022-12-17T23:17:59.119Z,83.20
2022-12-17T23:20:29.524Z,88.00
2022-12-17T23:22:57.704Z,81.70
2022-12-17T23:25:26.579Z,91.20
2022-12-17T23:27:54.781Z,91.40
2022-12-17T23:30:22.998Z,84.70
2022-12-17T23:32:51.926Z,79.10
2022-12-17T23:35:20.314Z,91.40
2022-12-17T23:37:49.751Z,80.50
2022-12-17T23:40:17.860Z,94.90
2022-12-17T23:42:45.849Z,89.60
2022-12-17T23:45:14.236Z,96.40
2022-12-17T23:47:42.300Z,77.80
2022-12-17T23:50:11.998Z,92.00
2022-12-17T23:52:40.076Z,91.70
2022-12-17T23:55:11.949Z,94.30
2022-12-17T23:57:40.412Z,92.70
